createdAt,value
2018-09-01T00:00:33.929Z,22.52
2018-09-01T00:01:37.360Z,22.49
2018-09-01T00:02:40.786Z,22.53
2018-09-01T00:03:44.236Z,22.53
2018-09-01T00:04:47.648Z,22.55
2018-09-01T00:05:51.078Z,22.54
2018-09-01T00:06:54.796Z,22.50
2018-09-01T00:07:58.219Z,22.56
2018-09-01T00:09:01.696Z,22.57
2018-09-01T00:10:05.421Z,22.58
2018-09-01T00:11:08.841Z,22.59
2018-09-01T00:12:12.288Z,22.60
2018-09-01T00:13:15.665Z,22.56
2018-09-01T00:14:19.093Z,22.55
2018-09-01T00:15:22.469Z,22.60
2018-09-01T00:16:25.885Z,22.59
2018-09-01T00:17:30.500Z,22.59
2018-09-01T00:18:33.880Z,22.59
2018-09-01T00:19:37.273Z,22.59
2018-09-01T00:20:40.694Z,22.58
2018-09-01T00:21:44.100Z,22.59
2018-09-01T00:22:47.492Z,22.59
2018-09-01T00:23:50.903Z,22.60
2018-09-01T00:24:54.337Z,22.60
2018-09-01T00:25:57.732Z,22.60
2018-09-01T00:27:01.115Z,22.59
2018-09-01T00:28:04.551Z,22.59
2018-09-01T00:29:07.952Z,22.59
2018-09-01T00:30:11.396Z,22.59
2018-09-01T00:31:14.836Z,22.58
2018-09-01T00:32:18.412Z,22.58
2018-09-01T00:33:21.816Z,22.59
2018-09-01T00:34:25.212Z,22.59
2018-09-01T00:35:28.613Z,22.57
2018-09-01T00:36:32.055Z,22.59
2018-09-01T00:37:40.772Z,22.59
2018-09-01T00:38:49.572Z,22.60
2018-09-01T00:39:52.989Z,22.52
2018-09-01T00:40:57.388Z,22.59
2018-09-01T00:42:00.815Z,22.59
2018-09-01T00:43:04.322Z,22.60
2018-09-01T00:44:07.729Z,22.58
2018-09-01T00:45:11.113Z,22.59
2018-09-01T00:46:14.567Z,22.59
2018-09-01T00:47:18.016Z,22.58
2018-09-01T00:48:21.390Z,22.58
2018-09-01T00:49:24.807Z,22.58
2018-09-01T00:50:28.209Z,22.57
2018-09-01T00:51:31.654Z,22.57
2018-09-01T00:52:35.072Z,22.58
2018-09-01T00:53:38.449Z,22.57
2018-09-01T00:54:41.830Z,22.57
2018-09-01T00:55:45.243Z,22.56
2018-09-01T00:56:48.586Z,22.55
2018-09-01T00:57:51.983Z,22.54
2018-09-01T00:58:55.411Z,22.55
2018-09-01T00:59:58.885Z,22.54
2018-09-01T01:01:02.268Z,22.53
2018-09-01T01:02:05.692Z,22.53
2018-09-01T01:03:09.126Z,22.54
2018-09-01T01:04:12.508Z,22.53
2018-09-01T01:05:15.909Z,22.53
2018-09-01T01:06:19.259Z,22.53
2018-09-01T01:07:22.615Z,22.52
2018-09-01T01:08:26.081Z,22.54
2018-09-01T01:09:29.468Z,22.46
2018-09-01T01:10:32.877Z,22.52
2018-09-01T01:11:36.270Z,22.51
2018-09-01T01:12:39.670Z,22.52
2018-09-01T01:13:43.076Z,22.52
2018-09-01T01:14:46.489Z,22.51
2018-09-01T01:15:49.846Z,22.51
2018-09-01T01:16:53.284Z,22.51
2018-09-01T01:17:56.736Z,22.51
2018-09-01T01:19:00.118Z,22.51
2018-09-01T01:20:03.519Z,22.50
2018-09-01T01:21:06.940Z,22.51
2018-09-01T01:22:10.372Z,22.51
2018-09-01T01:23:13.770Z,22.51
2018-09-01T01:24:17.194Z,22.51
2018-09-01T01:25:20.578Z,22.52
2018-09-01T01:26:23.989Z,22.51
2018-09-01T01:27:28.227Z,22.51
2018-09-01T01:28:31.640Z,22.52
2018-09-01T01:29:35.059Z,22.54
2018-09-01T01:30:38.473Z,22.53
2018-09-01T01:31:41.914Z,22.53
2018-09-01T01:32:45.296Z,22.53
2018-09-01T01:33:48.712Z,22.53
2018-09-01T01:34:52.100Z,22.54
2018-09-01T01:35:55.599Z,22.54
2018-09-01T01:36:58.996Z,22.52
2018-09-01T01:38:02.386Z,22.51
2018-09-01T01:39:06.984Z,22.50
2018-09-01T01:40:10.439Z,22.48
2018-09-01T01:41:13.826Z,22.48
2018-09-01T01:42:18.336Z,22.47
2018-09-01T01:43:21.732Z,22.45
2018-09-01T01:44:25.161Z,22.45
2018-09-01T01:45:30.036Z,22.43
2018-09-01T01:46:33.426Z,22.42
2018-09-01T01:47:40.555Z,22.41
2018-09-01T01:48:43.975Z,22.40
2018-09-01T01:49:47.366Z,22.40
2018-09-01T01:50:50.759Z,22.39
2018-09-01T01:51:54.130Z,22.38
2018-09-01T01:52:57.548Z,22.37
2018-09-01T01:54:00.948Z,22.29
2018-09-01T01:55:04.392Z,22.34
2018-09-01T01:56:07.816Z,22.34
2018-09-01T01:57:11.225Z,22.35
2018-09-01T01:58:14.648Z,22.34
2018-09-01T01:59:18.002Z,22.36
2018-09-01T02:00:21.400Z,22.35
2018-09-01T02:01:24.831Z,22.27
2018-09-01T02:02:28.252Z,22.36
2018-09-01T02:03:31.645Z,22.36
2018-09-01T02:04:35.191Z,22.32
2018-09-01T02:05:38.603Z,22.38
2018-09-01T02:06:42.085Z,22.39
2018-09-01T02:07:45.903Z,22.39
2018-09-01T02:08:49.327Z,22.38
2018-09-01T02:09:52.698Z,22.39
2018-09-01T02:10:56.223Z,22.40
2018-09-01T02:11:59.691Z,22.39
2018-09-01T02:13:03.117Z,22.36
2018-09-01T02:14:06.880Z,22.38
2018-09-01T02:15:10.287Z,22.37
2018-09-01T02:16:13.714Z,22.37
2018-09-01T02:17:17.141Z,22.36
2018-09-01T02:18:20.553Z,22.35
2018-09-01T02:19:23.960Z,22.36
2018-09-01T02:20:27.373Z,22.31
2018-09-01T02:21:30.753Z,22.30
2018-09-01T02:22:34.160Z,22.34
2018-09-01T02:23:37.556Z,22.34
2018-09-01T02:24:40.948Z,22.35
2018-09-01T02:25:44.335Z,22.35
2018-09-01T02:26:47.678Z,22.36
2018-09-01T02:27:51.084Z,22.36
2018-09-01T02:28:54.454Z,22.37
2018-09-01T02:29:58.292Z,22.36
2018-09-01T02:31:01.671Z,22.37
2018-09-01T02:32:05.042Z,22.36
2018-09-01T02:33:08.482Z,22.38
2018-09-01T02:34:11.990Z,22.38
2018-09-01T02:35:15.378Z,22.35
2018-09-01T02:36:18.787Z,22.36
2018-09-01T02:37:22.239Z,22.36
2018-09-01T02:38:25.640Z,22.36
2018-09-01T02:39:29.054Z,22.31
2018-09-01T02:40:32.465Z,22.35
2018-09-01T02:41:36.036Z,22.36
2018-09-01T02:42:39.470Z,22.34
2018-09-01T02:43:42.854Z,22.35
2018-09-01T02:44:46.251Z,22.36
2018-09-01T02:45:49.662Z,22.35
2018-09-01T02:46:53.048Z,22.34
2018-09-01T02:47:56.485Z,22.34
2018-09-01T02:48:59.869Z,22.32
2018-09-01T02:50:03.290Z,22.28
2018-09-01T02:51:06.700Z,22.32
2018-09-01T02:52:10.186Z,22.31
2018-09-01T02:53:13.606Z,22.27
2018-09-01T02:54:17.036Z,22.31
2018-09-01T02:55:20.451Z,22.31
2018-09-01T02:56:23.885Z,22.31
2018-09-01T02:57:27.348Z,22.29
2018-09-01T02:58:30.757Z,22.29
2018-09-01T02:59:34.162Z,22.29
2018-09-01T03:00:38.458Z,22.26
2018-09-01T03:01:41.881Z,22.27
2018-09-01T03:02:46.117Z,22.27
2018-09-01T03:03:49.518Z,22.26
2018-09-01T03:04:52.932Z,22.26
2018-09-01T03:05:56.318Z,22.26
2018-09-01T03:07:00.976Z,22.27
2018-09-01T03:08:04.421Z,22.26
2018-09-01T03:09:08.106Z,22.27
2018-09-01T03:10:11.527Z,22.26
2018-09-01T03:11:14.941Z,22.26
2018-09-01T03:12:18.294Z,22.26
2018-09-01T03:13:21.696Z,22.25
2018-09-01T03:14:26.185Z,22.25
2018-09-01T03:15:29.581Z,22.26
2018-09-01T03:16:33.006Z,22.25
2018-09-01T03:17:36.432Z,22.25
2018-09-01T03:18:39.843Z,22.25
2018-09-01T03:19:43.268Z,22.25
2018-09-01T03:20:46.671Z,22.24
2018-09-01T03:21:50.089Z,22.20
2018-09-01T03:22:53.489Z,22.18
2018-09-01T03:23:56.897Z,22.22
2018-09-01T03:25:00.322Z,22.21
2018-09-01T03:26:03.713Z,22.17
2018-09-01T03:27:07.164Z,22.20
2018-09-01T03:28:10.538Z,22.20
2018-09-01T03:29:13.976Z,22.20
2018-09-01T03:30:17.396Z,22.19
2018-09-01T03:31:20.860Z,22.18
2018-09-01T03:32:24.253Z,22.17
2018-09-01T03:33:27.630Z,22.17
2018-09-01T03:34:31.056Z,22.16
2018-09-01T03:35:34.463Z,22.16
2018-09-01T03:36:37.853Z,22.15
2018-09-01T03:37:41.271Z,22.16
2018-09-01T03:38:44.656Z,22.12
2018-09-01T03:39:48.091Z,22.16
2018-09-01T03:40:51.458Z,22.16
2018-09-01T03:41:54.868Z,22.14
2018-09-01T03:42:58.272Z,22.15
2018-09-01T03:44:01.685Z,22.16
2018-09-01T03:45:05.102Z,22.15
2018-09-01T03:46:08.492Z,22.11
2018-09-01T03:47:11.883Z,22.16
2018-09-01T03:48:15.354Z,22.16
2018-09-01T03:49:18.757Z,22.12
2018-09-01T03:50:22.182Z,22.16
2018-09-01T03:51:25.756Z,22.14
2018-09-01T03:52:29.132Z,22.17
2018-09-01T03:53:32.516Z,22.11
2018-09-01T03:54:35.920Z,22.15
2018-09-01T03:55:39.344Z,22.15
2018-09-01T03:56:42.745Z,22.14
2018-09-01T03:57:46.295Z,22.14
2018-09-01T03:58:49.826Z,22.14
2018-09-01T03:59:53.226Z,22.13
2018-09-01T04:00:56.713Z,22.14
2018-09-01T04:02:00.134Z,22.10
2018-09-01T04:03:03.552Z,22.14
2018-09-01T04:04:06.940Z,22.14
2018-09-01T04:05:10.341Z,22.15
2018-09-01T04:06:13.754Z,22.10
2018-09-01T04:07:17.268Z,22.16
2018-09-01T04:08:20.654Z,22.15
2018-09-01T04:09:24.050Z,22.15
2018-09-01T04:10:27.461Z,22.12
2018-09-01T04:11:30.914Z,22.16
2018-09-01T04:12:34.382Z,22.17
2018-09-01T04:13:37.749Z,22.14
2018-09-01T04:14:41.168Z,22.15
2018-09-01T04:15:44.550Z,22.15
2018-09-01T04:16:47.991Z,22.12
2018-09-01T04:17:51.364Z,22.10
2018-09-01T04:18:54.738Z,22.14
2018-09-01T04:19:58.137Z,22.15
2018-09-01T04:21:01.607Z,22.11
2018-09-01T04:22:05.069Z,22.13
2018-09-01T04:23:08.424Z,22.13
2018-09-01T04:24:11.956Z,22.14
2018-09-01T04:25:15.345Z,22.13
2018-09-01T04:26:18.741Z,22.14
2018-09-01T04:27:22.195Z,22.11
2018-09-01T04:28:25.606Z,22.12
2018-09-01T04:29:29.019Z,22.11
2018-09-01T04:30:32.437Z,22.10
2018-09-01T04:31:35.866Z,22.11
2018-09-01T04:32:39.263Z,22.06
2018-09-01T04:33:42.642Z,22.10
2018-09-01T04:34:46.049Z,22.09
2018-09-01T04:35:49.461Z,22.10
2018-09-01T04:36:52.887Z,22.06
2018-09-01T04:37:56.317Z,22.11
2018-09-01T04:38:59.751Z,22.06
2018-09-01T04:40:03.160Z,22.09
2018-09-01T04:41:06.643Z,22.09
2018-09-01T04:42:10.052Z,22.10
2018-09-01T04:43:13.688Z,22.10
2018-09-01T04:44:17.072Z,22.09
2018-09-01T04:45:20.558Z,22.09
2018-09-01T04:46:24.165Z,22.08
2018-09-01T04:47:27.587Z,22.06
2018-09-01T04:48:31.016Z,22.07
2018-09-01T04:49:34.404Z,22.07
2018-09-01T04:50:37.863Z,22.07
2018-09-01T04:51:41.259Z,22.07
2018-09-01T04:52:44.807Z,22.07
2018-09-01T04:53:48.247Z,22.02
2018-09-01T04:54:51.590Z,22.08
2018-09-01T04:55:54.981Z,22.07
2018-09-01T04:56:58.391Z,22.05
2018-09-01T04:58:02.037Z,22.01
2018-09-01T04:59:05.511Z,21.95
2018-09-01T05:00:09.206Z,21.89
2018-09-01T05:01:12.757Z,21.82
2018-09-01T05:02:16.039Z,21.73
2018-09-01T05:03:19.435Z,21.67
2018-09-01T05:04:22.822Z,21.63
2018-09-01T05:05:26.227Z,21.52
2018-09-01T05:06:29.667Z,21.42
2018-09-01T05:07:33.139Z,21.32
2018-09-01T05:08:36.631Z,21.28
2018-09-01T05:09:40.139Z,21.19
2018-09-01T05:10:43.547Z,21.20
2018-09-01T05:11:47.077Z,21.17
2018-09-01T05:12:50.871Z,21.10
2018-09-01T05:13:54.275Z,20.99
2018-09-01T05:14:57.727Z,20.98
2018-09-01T05:16:01.470Z,20.98
2018-09-01T05:17:04.970Z,20.97
2018-09-01T05:18:08.370Z,21.03
2018-09-01T05:19:11.795Z,21.02
2018-09-01T05:20:15.405Z,21.05
2018-09-01T05:21:18.815Z,21.03
2018-09-01T05:22:22.203Z,21.09
2018-09-01T05:23:25.793Z,21.04
2018-09-01T05:24:29.239Z,21.09
2018-09-01T05:25:32.704Z,21.08
2018-09-01T05:26:36.095Z,21.07
2018-09-01T05:27:39.481Z,21.05
2018-09-01T05:28:42.954Z,21.02
2018-09-01T05:29:46.353Z,21.03
2018-09-01T05:30:49.806Z,21.04
2018-09-01T05:31:53.216Z,21.06
2018-09-01T05:32:56.697Z,21.07
2018-09-01T05:34:00.146Z,20.99
2018-09-01T05:35:03.873Z,20.95
2018-09-01T05:36:07.285Z,20.94
2018-09-01T05:37:10.688Z,20.93
2018-09-01T05:38:14.263Z,20.88
2018-09-01T05:39:17.653Z,20.86
2018-09-01T05:40:21.052Z,20.79
2018-09-01T05:41:24.479Z,20.75
2018-09-01T05:42:27.864Z,20.72
2018-09-01T05:43:31.359Z,20.70
2018-09-01T05:44:34.767Z,20.69
2018-09-01T05:45:38.154Z,20.69
2018-09-01T05:46:41.670Z,20.69
2018-09-01T05:47:45.125Z,20.70
2018-09-01T05:48:48.524Z,20.71
2018-09-01T05:49:51.929Z,20.72
2018-09-01T05:50:55.345Z,20.75
2018-09-01T05:51:58.746Z,20.75
2018-09-01T05:53:02.150Z,20.75
2018-09-01T05:54:05.541Z,20.77
2018-09-01T05:55:08.968Z,20.78
2018-09-01T05:56:12.386Z,20.78
2018-09-01T05:57:15.768Z,20.79
2018-09-01T05:58:19.191Z,20.78
2018-09-01T05:59:22.833Z,20.78
2018-09-01T06:00:26.348Z,20.78
2018-09-01T06:01:29.812Z,20.79
2018-09-01T06:02:33.229Z,20.79
2018-09-01T06:03:36.622Z,20.80
2018-09-01T06:04:40.014Z,20.80
2018-09-01T06:05:43.390Z,20.79
2018-09-01T06:06:46.888Z,20.77
2018-09-01T06:07:50.373Z,20.78
2018-09-01T06:08:53.791Z,20.76
2018-09-01T06:09:57.193Z,20.76
2018-09-01T06:11:00.594Z,20.75
2018-09-01T06:12:03.989Z,20.74
2018-09-01T06:13:07.394Z,20.73
2018-09-01T06:14:10.791Z,20.70
2018-09-01T06:15:14.206Z,20.67
2018-09-01T06:16:17.646Z,20.65
2018-09-01T06:17:21.105Z,20.63
2018-09-01T06:18:24.845Z,20.63
2018-09-01T06:19:29.300Z,20.63
2018-09-01T06:20:32.726Z,20.65
2018-09-01T06:21:36.104Z,20.61
2018-09-01T06:22:39.543Z,20.64
2018-09-01T06:23:42.965Z,20.65
2018-09-01T06:24:46.532Z,20.65
2018-09-01T06:25:49.936Z,20.66
2018-09-01T06:26:53.475Z,20.67
2018-09-01T06:28:02.643Z,20.66
2018-09-01T06:29:09.738Z,20.66
2018-09-01T06:30:23.037Z,20.66
2018-09-01T06:31:26.565Z,20.63
2018-09-01T06:32:30.048Z,20.59
2018-09-01T06:33:33.891Z,20.61
2018-09-01T06:34:37.294Z,20.56
2018-09-01T06:35:41.284Z,20.52
2018-09-01T06:36:44.660Z,20.49
2018-09-01T06:37:48.480Z,20.43
2018-09-01T06:38:51.923Z,20.44
2018-09-01T06:39:55.312Z,20.45
2018-09-01T06:40:58.815Z,20.46
2018-09-01T06:42:02.837Z,20.47
2018-09-01T06:43:06.490Z,20.49
2018-09-01T06:44:10.031Z,20.52
2018-09-01T06:45:13.455Z,20.53
2018-09-01T06:46:16.883Z,20.54
2018-09-01T06:47:20.710Z,20.56
2018-09-01T06:48:24.334Z,20.56
2018-09-01T06:49:27.790Z,20.57
2018-09-01T06:50:31.818Z,20.54
2018-09-01T06:51:36.228Z,20.52
2018-09-01T06:52:39.693Z,20.52
2018-09-01T06:53:43.107Z,20.51
2018-09-01T06:54:46.454Z,20.50
2018-09-01T06:55:50.779Z,20.51
2018-09-01T06:56:54.180Z,20.51
2018-09-01T06:57:57.651Z,20.51
2018-09-01T06:59:01.199Z,20.51
2018-09-01T07:00:04.660Z,20.52
2018-09-01T07:01:08.126Z,20.52
2018-09-01T07:02:11.501Z,20.52
2018-09-01T07:03:14.885Z,20.52
2018-09-01T07:04:18.299Z,20.53
2018-09-01T07:05:21.784Z,20.54
2018-09-01T07:06:25.240Z,20.59
2018-09-01T07:07:28.648Z,20.59
2018-09-01T07:08:32.071Z,20.60
2018-09-01T07:09:35.461Z,20.62
2018-09-01T07:10:38.844Z,20.64
2018-09-01T07:11:42.272Z,20.67
2018-09-01T07:12:45.764Z,20.72
2018-09-01T07:13:49.305Z,20.75
2018-09-01T07:14:52.700Z,20.81
2018-09-01T07:15:56.144Z,20.82
2018-09-01T07:16:59.550Z,20.83
2018-09-01T07:18:03.200Z,20.85
2018-09-01T07:19:07.357Z,20.90
2018-09-01T07:20:10.792Z,20.88
2018-09-01T07:21:15.264Z,20.89
2018-09-01T07:22:18.724Z,20.89
2018-09-01T07:23:22.904Z,20.90
2018-09-01T07:24:26.568Z,20.90
2018-09-01T07:25:30.472Z,20.90
2018-09-01T07:26:34.021Z,20.92
2018-09-01T07:27:37.420Z,20.91
2018-09-01T07:28:40.866Z,20.92
2018-09-01T07:29:44.304Z,20.92
2018-09-01T07:30:47.953Z,20.92
2018-09-01T07:31:52.188Z,20.92
2018-09-01T07:32:55.590Z,20.93
2018-09-01T07:33:58.981Z,20.92
2018-09-01T07:35:02.805Z,20.93
2018-09-01T07:36:06.248Z,20.92
2018-09-01T07:37:09.737Z,20.93
2018-09-01T07:38:13.144Z,20.94
2018-09-01T07:39:16.542Z,20.94
2018-09-01T07:40:21.070Z,20.94
2018-09-01T07:41:24.544Z,20.92
2018-09-01T07:42:28.007Z,20.94
2018-09-01T07:43:31.397Z,20.96
2018-09-01T07:44:34.823Z,20.96
2018-09-01T07:45:38.287Z,20.95
2018-09-01T07:46:41.865Z,20.96
2018-09-01T07:47:45.264Z,20.96
2018-09-01T07:48:48.681Z,20.99
2018-09-01T07:49:52.123Z,20.98
2018-09-01T07:50:55.484Z,20.98
2018-09-01T07:51:58.888Z,20.98
2018-09-01T07:53:02.278Z,20.99
2018-09-01T07:54:05.709Z,21.00
2018-09-01T07:55:09.155Z,20.99
2018-09-01T07:56:12.641Z,20.99
2018-09-01T07:57:15.960Z,21.00
2018-09-01T07:58:19.383Z,21.01
2018-09-01T07:59:22.843Z,21.02
2018-09-01T08:00:26.318Z,21.00
2018-09-01T08:01:29.752Z,21.03
2018-09-01T08:02:33.128Z,21.02
2018-09-01T08:03:36.607Z,21.03
2018-09-01T08:04:39.996Z,21.02
2018-09-01T08:05:43.393Z,21.04
2018-09-01T08:06:46.793Z,21.04
2018-09-01T08:07:50.232Z,21.05
2018-09-01T08:08:53.634Z,21.05
2018-09-01T08:09:57.166Z,21.05
2018-09-01T08:11:00.586Z,21.01
2018-09-01T08:12:04.019Z,21.06
2018-09-01T08:13:07.464Z,21.04
2018-09-01T08:14:10.958Z,21.08
2018-09-01T08:15:14.316Z,21.08
2018-09-01T08:16:17.780Z,21.08
2018-09-01T08:17:21.172Z,21.08
2018-09-01T08:18:24.583Z,21.09
2018-09-01T08:19:28.109Z,21.09
2018-09-01T08:20:31.498Z,21.09
2018-09-01T08:21:34.975Z,21.10
2018-09-01T08:22:38.372Z,21.10
2018-09-01T08:23:41.792Z,21.11
2018-09-01T08:24:45.236Z,21.11
2018-09-01T08:25:48.718Z,21.11
2018-09-01T08:26:52.153Z,21.12
2018-09-01T08:27:55.590Z,21.12
2018-09-01T08:28:59.233Z,21.12
2018-09-01T08:30:02.636Z,21.14
2018-09-01T08:31:06.208Z,21.14
2018-09-01T08:32:09.602Z,21.14
2018-09-01T08:33:13.072Z,21.15
2018-09-01T08:34:16.448Z,21.14
2018-09-01T08:35:19.903Z,21.15
2018-09-01T08:36:23.353Z,21.16
2018-09-01T08:37:26.733Z,21.16
2018-09-01T08:38:30.103Z,21.17
2018-09-01T08:39:33.545Z,21.17
2018-09-01T08:40:36.963Z,21.18
2018-09-01T08:41:40.355Z,21.18
2018-09-01T08:42:43.822Z,21.15
2018-09-01T08:43:47.244Z,21.18
2018-09-01T08:44:50.713Z,21.19
2018-09-01T08:45:54.086Z,21.19
2018-09-01T08:46:57.484Z,21.19
2018-09-01T08:48:00.888Z,21.19
2018-09-01T08:49:04.338Z,21.20
2018-09-01T08:50:07.832Z,21.17
2018-09-01T08:51:11.279Z,21.19
2018-09-01T08:52:14.735Z,21.20
2018-09-01T08:53:18.168Z,21.20
2018-09-01T08:54:21.677Z,21.21
2018-09-01T08:55:25.116Z,21.22
2018-09-01T08:56:28.554Z,21.21
2018-09-01T08:57:31.921Z,21.22
2018-09-01T08:58:35.328Z,21.22
2018-09-01T08:59:38.723Z,21.22
2018-09-01T09:00:42.135Z,21.22
2018-09-01T09:01:45.585Z,21.24
2018-09-01T09:02:49.218Z,21.24
2018-09-01T09:03:52.604Z,21.24
2018-09-01T09:04:56.048Z,21.23
2018-09-01T09:05:59.516Z,21.24
2018-09-01T09:07:02.967Z,21.25
2018-09-01T09:08:06.368Z,21.25
2018-09-01T09:09:09.778Z,21.25
2018-09-01T09:10:13.204Z,21.24
2018-09-01T09:11:16.646Z,21.26
2018-09-01T09:12:20.261Z,21.27
2018-09-01T09:13:23.669Z,21.27
2018-09-01T09:14:27.059Z,21.26
2018-09-01T09:15:30.650Z,21.27
2018-09-01T09:16:34.148Z,21.28
2018-09-01T09:17:37.562Z,21.28
2018-09-01T09:18:41.027Z,21.27
2018-09-01T09:19:44.373Z,21.28
2018-09-01T09:20:47.789Z,21.29
2018-09-01T09:21:51.496Z,21.29
2018-09-01T09:22:54.969Z,21.30
2018-09-01T09:23:58.511Z,21.30
2018-09-01T09:25:01.972Z,21.29
2018-09-01T09:26:05.599Z,21.30
2018-09-01T09:27:09.004Z,21.30
2018-09-01T09:28:12.396Z,21.30
2018-09-01T09:29:15.920Z,21.31
2018-09-01T09:30:19.455Z,21.31
2018-09-01T09:31:22.826Z,21.31
2018-09-01T09:32:26.248Z,21.32
2018-09-01T09:33:29.659Z,21.32
2018-09-01T09:34:33.090Z,21.32
2018-09-01T09:35:36.522Z,21.32
2018-09-01T09:36:39.956Z,21.32
2018-09-01T09:37:43.381Z,21.32
2018-09-01T09:38:46.859Z,21.33
2018-09-01T09:39:50.244Z,21.33
2018-09-01T09:40:53.646Z,21.33
2018-09-01T09:41:57.143Z,21.34
2018-09-01T09:43:00.593Z,21.35
2018-09-01T09:44:04.042Z,21.35
2018-09-01T09:45:07.462Z,21.31
2018-09-01T09:46:10.879Z,21.35
2018-09-01T09:47:14.279Z,21.35
2018-09-01T09:48:17.713Z,21.35
2018-09-01T09:49:21.125Z,21.37
2018-09-01T09:50:24.510Z,21.36
2018-09-01T09:51:28.896Z,21.36
2018-09-01T09:52:32.313Z,21.37
2018-09-01T09:53:35.694Z,21.37
2018-09-01T09:54:39.130Z,21.38
2018-09-01T09:55:42.505Z,21.38
2018-09-01T09:56:45.968Z,21.40
2018-09-01T09:57:49.426Z,21.39
2018-09-01T09:58:53.005Z,21.39
2018-09-01T09:59:57.327Z,21.40
2018-09-01T10:01:05.178Z,21.40
2018-09-01T10:02:08.556Z,21.41
2018-09-01T10:03:11.961Z,21.40
2018-09-01T10:04:15.372Z,21.41
2018-09-01T10:05:18.797Z,21.41
2018-09-01T10:06:22.291Z,21.40
2018-09-01T10:07:25.723Z,21.40
2018-09-01T10:08:29.177Z,21.40
2018-09-01T10:09:32.556Z,21.40
2018-09-01T10:10:35.969Z,21.40
2018-09-01T10:11:39.955Z,21.40
2018-09-01T10:12:43.360Z,21.40
2018-09-01T10:13:46.794Z,21.39
2018-09-01T10:14:50.186Z,21.41
2018-09-01T10:15:53.653Z,21.41
2018-09-01T10:16:57.034Z,21.41
2018-09-01T10:18:00.523Z,21.41
2018-09-01T10:19:03.970Z,21.41
2018-09-01T10:20:07.478Z,21.41
2018-09-01T10:21:10.842Z,21.42
2018-09-01T10:22:14.419Z,21.41
2018-09-01T10:23:17.816Z,21.41
2018-09-01T10:24:21.259Z,21.41
2018-09-01T10:25:24.650Z,21.42
2018-09-01T10:26:28.046Z,21.42
2018-09-01T10:27:31.438Z,21.42
2018-09-01T10:28:34.852Z,21.42
2018-09-01T10:29:38.284Z,21.43
2018-09-01T10:30:41.721Z,21.42
2018-09-01T10:31:45.113Z,21.43
2018-09-01T10:32:48.523Z,21.43
2018-09-01T10:33:51.918Z,21.45
2018-09-01T10:34:56.174Z,21.44
2018-09-01T10:35:59.591Z,21.44
2018-09-01T10:37:03.029Z,21.43
2018-09-01T10:38:06.479Z,21.40
2018-09-01T10:39:10.552Z,21.43
2018-09-01T10:40:14.014Z,21.43
2018-09-01T10:41:17.452Z,21.44
2018-09-01T10:42:20.925Z,21.45
2018-09-01T10:43:24.349Z,21.44
2018-09-01T10:44:27.750Z,21.45
2018-09-01T10:45:31.164Z,21.46
2018-09-01T10:46:34.639Z,21.45
2018-09-01T10:47:38.044Z,21.46
2018-09-01T10:48:42.276Z,21.46
2018-09-01T10:49:45.649Z,21.46
2018-09-01T10:50:49.081Z,21.47
2018-09-01T10:51:52.542Z,21.47
2018-09-01T10:52:55.954Z,21.42
2018-09-01T10:53:59.377Z,21.48
2018-09-01T10:55:02.755Z,21.43
2018-09-01T10:56:06.812Z,21.48
2018-09-01T10:57:10.252Z,21.48
2018-09-01T10:58:13.623Z,21.48
2018-09-01T10:59:17.083Z,21.49
2018-09-01T11:00:21.236Z,21.50
2018-09-01T11:01:24.662Z,21.50
2018-09-01T11:02:28.057Z,21.50
2018-09-01T11:03:31.446Z,21.57
2018-09-01T11:04:34.861Z,21.58
2018-09-01T11:05:38.267Z,21.61
2018-09-01T11:06:41.648Z,21.62
2018-09-01T11:07:45.034Z,21.61
2018-09-01T11:08:48.471Z,21.63
2018-09-01T11:09:51.907Z,21.61
2018-09-01T11:10:55.305Z,21.61
2018-09-01T11:11:58.749Z,21.61
2018-09-01T11:13:02.163Z,21.60
2018-09-01T11:14:05.594Z,21.57
2018-09-01T11:15:09.041Z,21.56
2018-09-01T11:16:12.434Z,21.54
2018-09-01T11:17:15.876Z,21.53
2018-09-01T11:18:25.633Z,21.53
2018-09-01T11:19:29.258Z,21.53
2018-09-01T11:20:32.820Z,21.50
2018-09-01T11:21:36.532Z,21.54
2018-09-01T11:22:40.010Z,21.54
2018-09-01T11:23:43.582Z,21.55
2018-09-01T11:24:47.367Z,21.55
2018-09-01T11:25:51.559Z,21.55
2018-09-01T11:26:55.572Z,21.55
2018-09-01T11:27:59.018Z,21.55
2018-09-01T11:29:02.426Z,21.55
2018-09-01T11:30:07.888Z,21.53
2018-09-01T11:31:11.433Z,21.56
2018-09-01T11:32:14.938Z,21.57
2018-09-01T11:33:18.392Z,21.57
2018-09-01T11:34:21.797Z,21.57
2018-09-01T11:35:25.257Z,21.56
2018-09-01T11:36:28.650Z,21.59
2018-09-01T11:37:32.080Z,21.59
2018-09-01T11:38:35.465Z,21.58
2018-09-01T11:39:38.849Z,21.58
2018-09-01T11:40:42.224Z,21.57
2018-09-01T11:41:45.631Z,21.57
2018-09-01T11:42:49.170Z,21.57
2018-09-01T11:43:52.479Z,21.57
2018-09-01T11:44:55.928Z,21.57
2018-09-01T11:45:59.336Z,21.57
2018-09-01T11:47:02.760Z,21.55
2018-09-01T11:48:06.531Z,21.57
2018-09-01T11:49:09.953Z,21.56
2018-09-01T11:50:13.406Z,21.52
2018-09-01T11:51:16.866Z,21.56
2018-09-01T11:52:20.311Z,21.55
2018-09-01T11:53:23.874Z,21.55
2018-09-01T11:54:27.129Z,21.56
2018-09-01T11:55:30.559Z,21.54
2018-09-01T11:56:33.976Z,21.53
2018-09-01T11:57:37.366Z,21.53
2018-09-01T11:58:40.856Z,21.53
2018-09-01T11:59:44.231Z,21.52
2018-09-01T12:00:47.668Z,21.52
2018-09-01T12:01:51.072Z,21.53
2018-09-01T12:02:54.499Z,21.50
2018-09-01T12:03:58.015Z,21.54
2018-09-01T12:05:01.395Z,21.55
2018-09-01T12:06:04.858Z,21.56
2018-09-01T12:07:08.253Z,21.56
2018-09-01T12:08:11.623Z,21.57
2018-09-01T12:09:15.245Z,21.58
2018-09-01T12:10:18.651Z,21.57
2018-09-01T12:11:22.070Z,21.58
2018-09-01T12:12:25.530Z,21.59
2018-09-01T12:13:29.027Z,21.60
2018-09-01T12:14:32.475Z,21.61
2018-09-01T12:15:35.857Z,21.60
2018-09-01T12:16:39.273Z,21.61
2018-09-01T12:17:42.676Z,21.61
2018-09-01T12:18:46.050Z,21.61
2018-09-01T12:19:49.488Z,21.61
2018-09-01T12:20:52.885Z,21.60
2018-09-01T12:21:56.334Z,21.60
2018-09-01T12:22:59.825Z,21.61
2018-09-01T12:24:03.846Z,21.60
2018-09-01T12:25:07.330Z,21.59
2018-09-01T12:26:10.805Z,21.58
2018-09-01T12:27:14.220Z,21.59
2018-09-01T12:28:17.650Z,21.59
2018-09-01T12:29:21.048Z,21.58
2018-09-01T12:30:24.457Z,21.58
2018-09-01T12:31:28.243Z,21.57
2018-09-01T12:32:31.648Z,21.54
2018-09-01T12:33:36.123Z,21.58
2018-09-01T12:34:39.569Z,21.54
2018-09-01T12:35:43.035Z,21.57
2018-09-01T12:36:46.411Z,21.58
2018-09-01T12:37:49.806Z,21.59
2018-09-01T12:38:53.202Z,21.58
2018-09-01T12:39:56.843Z,21.59
2018-09-01T12:41:00.264Z,21.59
2018-09-01T12:42:03.695Z,21.58
2018-09-01T12:43:07.159Z,21.58
2018-09-01T12:44:10.599Z,21.58
2018-09-01T12:45:14.049Z,21.58
2018-09-01T12:46:17.456Z,21.59
2018-09-01T12:47:20.965Z,21.59
2018-09-01T12:48:24.341Z,21.62
2018-09-01T12:49:27.801Z,21.62
2018-09-01T12:50:31.250Z,21.62
2018-09-01T12:51:34.657Z,21.61
2018-09-01T12:52:38.057Z,21.61
2018-09-01T12:53:41.645Z,21.60
2018-09-01T12:54:45.134Z,21.60
2018-09-01T12:55:48.783Z,21.60
2018-09-01T12:56:52.375Z,21.61
2018-09-01T12:57:55.865Z,21.61
2018-09-01T12:58:59.555Z,21.57
2018-09-01T13:00:02.993Z,21.60
2018-09-01T13:01:06.920Z,21.61
2018-09-01T13:02:10.699Z,21.61
2018-09-01T13:03:14.133Z,21.60
2018-09-01T13:04:17.595Z,21.61
2018-09-01T13:05:21.053Z,21.60
2018-09-01T13:06:24.618Z,21.60
2018-09-01T13:07:28.118Z,21.60
2018-09-01T13:08:31.589Z,21.60
2018-09-01T13:09:35.009Z,21.61
2018-09-01T13:10:38.428Z,21.59
2018-09-01T13:11:42.303Z,21.61
2018-09-01T13:12:45.835Z,21.60
2018-09-01T13:13:49.418Z,21.61
2018-09-01T13:14:52.871Z,21.56
2018-09-01T13:15:56.281Z,21.61
2018-09-01T13:16:59.666Z,21.61
2018-09-01T13:18:03.109Z,21.61
2018-09-01T13:19:06.612Z,21.61
2018-09-01T13:20:10.033Z,21.62
2018-09-01T13:21:13.448Z,21.63
2018-09-01T13:22:16.830Z,21.62
2018-09-01T13:23:20.313Z,21.63
2018-09-01T13:24:23.716Z,21.61
2018-09-01T13:25:27.326Z,21.59
2018-09-01T13:26:30.679Z,21.58
2018-09-01T13:27:34.072Z,21.59
2018-09-01T13:28:37.483Z,21.57
2018-09-01T13:29:40.898Z,21.57
2018-09-01T13:30:44.320Z,21.56
2018-09-01T13:31:47.781Z,21.57
2018-09-01T13:32:51.187Z,21.57
2018-09-01T13:33:54.596Z,21.56
2018-09-01T13:34:58.435Z,21.56
2018-09-01T13:36:01.823Z,21.56
2018-09-01T13:37:05.318Z,21.55
2018-09-01T13:38:08.741Z,21.55